createdAt,value
2017-04-06T03:01:01.171Z,1023.33
2017-04-06T03:01:26.722Z,1023.31
2017-04-06T03:01:52.299Z,1023.29
2017-04-06T03:02:17.981Z,1023.31
2017-04-06T03:02:43.578Z,1023.31
2017-04-06T03:03:09.111Z,1023.25
2017-04-06T03:03:34.665Z,1023.29
2017-04-06T03:04:00.241Z,1023.31
2017-04-06T03:04:25.798Z,1023.27
2017-04-06T03:04:52.064Z,1023.3
2017-04-06T03:05:17.769Z,1023.26
2017-04-06T03:05:43.355Z,1023.28
2017-04-06T03:06:08.895Z,1023.33
2017-04-06T03:06:34.456Z,1023.35
2017-04-06T03:06:59.999Z,1023.31
2017-04-06T03:07:25.573Z,1023.32
2017-04-06T03:07:51.240Z,1023.35
2017-04-06T03:08:16.795Z,1023.34
2017-04-06T03:08:42.381Z,1023.39
2017-04-06T03:09:07.969Z,1023.35
2017-04-06T03:09:33.574Z,1023.39
2017-04-06T03:09:59.139Z,1023.36
2017-04-06T03:10:24.743Z,1023.4
2017-04-06T03:10:50.351Z,1023.4
2017-04-06T03:11:15.903Z,1023.4
2017-04-06T03:11:41.449Z,1023.36
2017-04-06T03:12:07.006Z,1023.33
2017-04-06T03:12:32.551Z,1023.33
2017-04-06T03:12:58.129Z,1023.33
2017-04-06T03:13:23.700Z,1023.36
2017-04-06T03:13:49.233Z,1023.38
2017-04-06T03:14:14.788Z,1023.35
2017-04-06T03:14:40.331Z,1023.41
2017-04-06T03:15:05.916Z,1023.45
2017-04-06T03:15:31.487Z,1023.45
2017-04-06T03:15:57.164Z,1023.48
2017-04-06T03:16:22.725Z,1023.43
2017-04-06T03:16:48.291Z,1023.45
2017-04-06T03:17:13.859Z,1023.45
2017-04-06T03:17:39.424Z,1023.42
2017-04-06T03:18:05.057Z,1023.41
2017-04-06T03:18:30.691Z,1023.43
2017-04-06T03:18:56.253Z,1023.43
2017-04-06T03:19:21.824Z,1023.45
2017-04-06T03:19:47.486Z,1023.41
2017-04-06T03:20:13.059Z,1023.42
2017-04-06T03:20:38.625Z,1023.47
2017-04-06T03:21:04.191Z,1023.45
2017-04-06T03:21:29.749Z,1023.46
2017-04-06T03:21:55.312Z,1023.45
2017-04-06T03:22:20.860Z,1023.53
2017-04-06T03:22:46.435Z,1023.45
2017-04-06T03:23:12.003Z,1023.45
2017-04-06T03:23:37.557Z,1023.47
2017-04-06T03:24:03.100Z,1023.44
2017-04-06T03:24:28.640Z,1023.48
2017-04-06T03:24:54.166Z,1023.45
2017-04-06T03:25:23.369Z,1023.46
2017-04-06T03:25:48.907Z,1023.5
2017-04-06T03:26:14.447Z,1023.47
2017-04-06T03:26:39.992Z,1023.48
2017-04-06T03:27:05.538Z,1023.5
2017-04-06T03:27:31.085Z,1023.54
2017-04-06T03:27:56.634Z,1023.49
2017-04-06T03:28:22.167Z,1023.55
2017-04-06T03:28:47.780Z,1023.54
2017-04-06T03:29:13.365Z,1023.52
2017-04-06T03:29:39.008Z,1023.54
2017-04-06T03:30:04.572Z,1023.54
2017-04-06T03:30:30.140Z,1023.54
2017-04-06T03:30:55.727Z,1023.58
2017-04-06T03:31:21.409Z,1023.54
2017-04-06T03:31:46.967Z,1023.56
2017-04-06T03:32:12.604Z,1023.55
2017-04-06T03:32:38.228Z,1023.54
2017-04-06T03:33:03.771Z,1023.55
2017-04-06T03:33:29.321Z,1023.52
2017-04-06T03:33:54.866Z,1023.62
2017-04-06T03:34:20.442Z,1023.59
2017-04-06T03:34:46.002Z,1023.58
2017-04-06T03:35:11.577Z,1023.61
2017-04-06T03:35:51.981Z,1023.62
2017-04-06T03:36:17.553Z,1023.65
2017-04-06T03:36:43.189Z,1023.64
2017-04-06T03:37:08.849Z,1023.65
2017-04-06T03:37:34.428Z,1023.64
2017-04-06T03:37:59.983Z,1023.66
2017-04-06T03:38:25.561Z,1023.64
2017-04-06T03:38:51.104Z,1023.65
2017-04-06T03:39:16.638Z,1023.63
2017-04-06T03:39:42.186Z,1023.65
2017-04-06T03:40:07.762Z,1023.65
2017-04-06T03:40:33.321Z,1023.61
2017-04-06T03:40:58.873Z,1023.65
2017-04-06T03:41:24.526Z,1023.64
2017-04-06T03:41:50.089Z,1023.61
2017-04-06T03:42:15.822Z,1023.62
2017-04-06T03:42:41.405Z,1023.6
2017-04-06T03:43:07.053Z,1023.59
2017-04-06T03:43:32.625Z,1023.63
2017-04-06T03:43:58.182Z,1023.64
2017-04-06T03:44:23.730Z,1023.63
2017-04-06T03:44:49.297Z,1023.65
2017-04-06T03:45:14.861Z,1023.64
2017-04-06T03:45:40.417Z,1023.67
2017-04-06T03:46:05.983Z,1023.63
2017-04-06T03:46:31.559Z,1023.6
2017-04-06T03:46:57.137Z,1023.64
2017-04-06T03:47:22.740Z,1023.68
2017-04-06T03:47:48.332Z,1023.65
2017-04-06T03:48:13.894Z,1023.63
2017-04-06T03:48:39.600Z,1023.65
2017-04-06T03:49:05.170Z,1023.71
2017-04-06T03:49:30.732Z,1023.65
2017-04-06T03:49:56.443Z,1023.65
2017-04-06T03:50:22.000Z,1023.66
2017-04-06T03:50:47.571Z,1023.66
2017-04-06T03:51:13.132Z,1023.64
2017-04-06T03:51:38.713Z,1023.67
2017-04-06T03:52:04.269Z,1023.65
2017-04-06T03:52:29.830Z,1023.68
2017-04-06T03:52:55.414Z,1023.67
2017-04-06T03:53:20.985Z,1023.67
2017-04-06T03:53:46.610Z,1023.68
2017-04-06T03:54:12.179Z,1023.68
2017-04-06T03:54:37.750Z,1023.7
2017-04-06T03:55:03.415Z,1023.68
2017-04-06T03:55:28.968Z,1023.69
2017-04-06T03:55:54.545Z,1023.72
2017-04-06T03:56:20.087Z,1023.67
2017-04-06T03:56:45.776Z,1023.69
2017-04-06T03:57:11.336Z,1023.67
2017-04-06T03:57:36.984Z,1023.67
2017-04-06T03:58:02.559Z,1023.66
2017-04-06T03:58:28.102Z,1023.66
2017-04-06T03:58:53.632Z,1023.71
2017-04-06T03:59:19.177Z,1023.63
2017-04-06T03:59:44.731Z,1023.68
2017-04-06T04:00:10.283Z,1023.67
2017-04-06T04:00:35.868Z,1023.68
2017-04-06T04:01:01.439Z,1023.62
2017-04-06T04:01:27.048Z,1023.64
2017-04-06T04:01:52.602Z,1023.65
2017-04-06T04:02:18.183Z,1023.65
2017-04-06T04:02:43.762Z,1023.7
2017-04-06T04:03:09.319Z,1023.63
2017-04-06T04:03:35.021Z,1023.67
2017-04-06T04:04:00.581Z,1023.7
2017-04-06T04:04:26.148Z,1023.65
2017-04-06T04:04:51.733Z,1023.68
2017-04-06T04:05:17.288Z,1023.71
2017-04-06T04:05:42.850Z,1023.72
2017-04-06T04:06:08.429Z,1023.7
2017-04-06T04:06:33.987Z,1023.69
2017-04-06T04:06:59.530Z,1023.74
2017-04-06T04:07:25.160Z,1023.74
2017-04-06T04:07:50.719Z,1023.74
2017-04-06T04:08:16.271Z,1023.75
2017-04-06T04:08:41.836Z,1023.78
2017-04-06T04:09:07.480Z,1023.75
2017-04-06T04:09:33.030Z,1023.77
2017-04-06T04:09:58.560Z,1023.78
2017-04-06T04:10:24.119Z,1023.79
2017-04-06T04:10:49.678Z,1023.77
2017-04-06T04:11:15.230Z,1023.73
2017-04-06T04:11:55.509Z,1023.78
2017-04-06T04:12:26.436Z,1023.78
2017-04-06T04:13:04.442Z,1023.71
2017-04-06T04:14:39.459Z,1023.75
2017-04-06T04:15:05.005Z,1023.75
2017-04-06T04:15:30.575Z,1023.79
2017-04-06T04:15:56.132Z,1023.8
2017-04-06T04:16:21.698Z,1023.76
2017-04-06T04:16:47.260Z,1023.84
2017-04-06T04:17:12.815Z,1023.79
2017-04-06T04:17:38.380Z,1023.76
2017-04-06T04:18:03.933Z,1023.82
2017-04-06T04:18:29.492Z,1023.79
2017-04-06T04:18:55.058Z,1023.76
2017-04-06T04:19:20.642Z,1023.79
2017-04-06T04:19:46.210Z,1023.74
2017-04-06T04:20:11.820Z,1023.78
2017-04-06T04:21:25.758Z,1023.72
2017-04-06T04:21:51.332Z,1023.7
2017-04-06T04:22:16.883Z,1023.69
2017-04-06T04:22:42.445Z,1023.66
2017-04-06T04:23:08.008Z,1023.66
2017-04-06T04:23:33.555Z,1023.63
2017-04-06T04:23:59.099Z,1023.68
2017-04-06T04:24:24.679Z,1023.67
2017-04-06T04:24:50.254Z,1023.73
2017-04-06T04:25:16.758Z,1023.69
2017-04-06T04:25:43.330Z,1023.7
2017-04-06T04:30:42.001Z,1023.8
2017-04-06T04:31:12.497Z,1023.83
2017-04-06T04:31:38.001Z,1023.81
2017-04-06T04:32:03.621Z,1023.82
2017-04-06T04:32:29.182Z,1023.81
2017-04-06T04:32:54.743Z,1023.81
2017-04-06T04:33:20.311Z,1023.8
2017-04-06T04:34:45.667Z,1023.79
2017-04-06T04:35:48.543Z,1023.8
2017-04-06T04:36:14.115Z,1023.83
2017-04-06T04:36:39.687Z,1023.8
2017-04-06T04:37:05.241Z,1023.82
2017-04-06T04:37:30.807Z,1023.82
2017-04-06T04:37:56.449Z,1023.83
2017-04-06T04:38:21.978Z,1023.8
2017-04-06T04:38:47.540Z,1023.82
2017-04-06T04:39:13.073Z,1023.85
2017-04-06T04:39:38.629Z,1023.84
2017-04-06T04:40:04.179Z,1023.87
2017-04-06T04:40:29.796Z,1023.81
2017-04-06T04:40:55.338Z,1023.86
2017-04-06T04:41:20.930Z,1023.87
2017-04-06T04:41:46.497Z,1023.87
2017-04-06T04:42:12.034Z,1023.85
2017-04-06T04:42:37.610Z,1023.87
2017-04-06T04:43:03.187Z,1023.84
2017-04-06T04:43:28.735Z,1023.85
2017-04-06T04:43:54.308Z,1023.83
2017-04-06T04:44:19.887Z,1023.82
2017-04-06T04:44:45.449Z,1023.83
2017-04-06T04:45:11.011Z,1023.78
2017-04-06T04:45:36.566Z,1023.8
2017-04-06T04:46:02.182Z,1023.84
2017-04-06T04:46:27.799Z,1023.82
2017-04-06T04:46:53.353Z,1023.78
2017-04-06T04:47:18.894Z,1023.81
2017-04-06T04:47:44.588Z,1023.79
2017-04-06T04:48:10.138Z,1023.84
2017-04-06T04:48:35.714Z,1023.83
2017-04-06T04:49:01.331Z,1023.81
2017-04-06T04:49:26.883Z,1023.79
2017-04-06T04:49:52.442Z,1023.81
2017-04-06T04:50:18.013Z,1023.82
2017-04-06T04:50:43.573Z,1023.77
2017-04-06T04:51:09.176Z,1023.81
2017-04-06T04:51:34.729Z,1023.85
2017-04-06T04:52:00.279Z,1023.82
2017-04-06T04:52:25.853Z,1023.85
2017-04-06T04:52:51.436Z,1023.85
2017-04-06T04:53:16.981Z,1023.83
2017-04-06T04:53:42.655Z,1023.84
2017-04-06T04:54:08.219Z,1023.85
2017-04-06T04:54:33.785Z,1023.85
2017-04-06T04:54:59.331Z,1023.87
2017-04-06T04:55:24.889Z,1023.84
2017-04-06T04:55:50.574Z,1023.81
2017-04-06T04:56:16.129Z,1023.86
2017-04-06T04:56:41.746Z,1023.85
2017-04-06T04:57:07.320Z,1023.9
2017-04-06T04:57:32.873Z,1023.85
2017-04-06T04:57:58.434Z,1023.84
2017-04-06T04:58:23.986Z,1023.84
2017-04-06T04:58:49.572Z,1023.88
2017-04-06T04:59:15.140Z,1023.85
2017-04-06T04:59:40.723Z,1023.86
2017-04-06T05:00:06.315Z,1023.94
2017-04-06T05:00:31.904Z,1023.99
2017-04-06T05:00:57.454Z,1023.99
2017-04-06T05:01:23.029Z,1024.01
2017-04-06T05:01:48.602Z,1023.95
2017-04-06T05:02:14.325Z,1023.98
2017-04-06T05:02:39.745Z,1024
2017-04-06T05:03:05.301Z,1023.99
2017-04-06T05:03:30.866Z,1023.97
2017-04-06T05:03:56.424Z,1023.98
2017-04-06T05:04:21.999Z,1023.98
2017-04-06T05:04:47.581Z,1024
2017-04-06T05:05:13.255Z,1024
2017-04-06T05:05:38.818Z,1023.99
2017-04-06T05:06:04.393Z,1024
2017-04-06T05:06:29.971Z,1024.01
2017-04-06T05:06:55.591Z,1024.03
2017-04-06T05:07:21.172Z,1023.98
2017-04-06T05:07:46.741Z,1023.99
2017-04-06T05:08:12.302Z,1024.04
2017-04-06T05:08:37.881Z,1024.02
2017-04-06T05:09:03.449Z,1023.98
2017-04-06T05:09:29.016Z,1024.01
2017-04-06T05:09:54.579Z,1024.02
2017-04-06T05:10:20.160Z,1023.95
2017-04-06T05:10:45.748Z,1023.96
2017-04-06T05:11:11.313Z,1023.98
2017-04-06T05:11:36.881Z,1024.01
2017-04-06T05:12:02.453Z,1023.98
2017-04-06T05:12:28.016Z,1024.01
2017-04-06T05:12:53.627Z,1024.01
2017-04-06T05:13:19.203Z,1024.03
2017-04-06T05:13:44.772Z,1024.01
2017-04-06T05:14:10.340Z,1024.02
2017-04-06T05:14:35.898Z,1024.04
2017-04-06T05:15:01.472Z,1024.05
2017-04-06T05:15:27.104Z,1024.06
2017-04-06T05:15:52.659Z,1024.09
2017-04-06T05:16:18.242Z,1024.08
2017-04-06T05:16:43.827Z,1024.07
2017-04-06T05:17:09.392Z,1024.1
2017-04-06T05:17:34.961Z,1024.12
2017-04-06T05:18:00.737Z,1024.14
2017-04-06T05:18:26.393Z,1024.1
2017-04-06T05:18:51.961Z,1024.11
2017-04-06T05:19:17.532Z,1024.13
2017-04-06T05:19:43.113Z,1024.12
2017-04-06T05:20:08.679Z,1024.17
2017-04-06T05:20:34.251Z,1024.17
2017-04-06T05:21:42.876Z,1024.22
2017-04-06T05:22:08.437Z,1024.21
2017-04-06T05:22:34.002Z,1024.27
2017-04-06T05:22:59.561Z,1024.22
2017-04-06T05:23:25.125Z,1024.23
2017-04-06T05:23:50.679Z,1024.23
2017-04-06T05:24:16.252Z,1024.25
2017-04-06T05:24:41.847Z,1024.27
2017-04-06T05:25:07.422Z,1024.32
2017-04-06T05:25:32.992Z,1024.33
2017-04-06T05:25:58.544Z,1024.34
2017-04-06T05:26:24.115Z,1024.36
2017-04-06T05:26:49.667Z,1024.3
2017-04-06T05:27:15.345Z,1024.33
2017-04-06T05:27:40.935Z,1024.33
2017-04-06T05:28:06.490Z,1024.34
2017-04-06T05:28:32.037Z,1024.36
2017-04-06T05:28:57.602Z,1024.4
2017-04-06T05:29:23.171Z,1024.34
2017-04-06T05:29:48.728Z,1024.41
2017-04-06T05:30:14.323Z,1024.38
2017-04-06T05:30:39.872Z,1024.39
2017-04-06T05:31:05.436Z,1024.41
2017-04-06T05:31:30.989Z,1024.4
2017-04-06T05:31:56.566Z,1024.46
2017-04-06T05:32:22.289Z,1024.46
2017-04-06T05:32:47.868Z,1024.42
2017-04-06T05:33:13.457Z,1024.41
2017-04-06T05:33:39.013Z,1024.39
2017-04-06T05:34:04.623Z,1024.36
2017-04-06T05:34:30.198Z,1024.4
2017-04-06T05:34:55.748Z,1024.39
2017-04-06T05:35:21.385Z,1024.41
2017-04-06T05:35:46.941Z,1024.37
2017-04-06T05:36:12.502Z,1024.42
2017-04-06T05:36:38.031Z,1024.44
2017-04-06T05:37:03.573Z,1024.56
2017-04-06T05:37:29.149Z,1024.49
2017-04-06T05:37:54.799Z,1024.41
2017-04-06T05:38:20.348Z,1024.43
2017-04-06T05:38:45.900Z,1024.43
2017-04-06T05:39:11.651Z,1024.43
2017-04-06T05:39:37.217Z,1024.45
2017-04-06T05:40:03.019Z,1024.49
2017-04-06T05:40:28.567Z,1024.47
2017-04-06T05:40:54.130Z,1024.53
2017-04-06T05:41:19.680Z,1024.42
2017-04-06T05:41:45.322Z,1024.5
2017-04-06T05:42:10.892Z,1024.39
2017-04-06T05:42:36.445Z,1024.48
2017-04-06T05:43:01.998Z,1024.43
2017-04-06T05:43:27.581Z,1024.51
2017-04-06T05:43:53.138Z,1024.49
2017-04-06T05:44:18.752Z,1024.45
2017-04-06T05:44:44.298Z,1024.43
2017-04-06T05:45:09.865Z,1024.51
2017-04-06T05:45:35.487Z,1024.53
2017-04-06T05:46:01.053Z,1024.47
2017-04-06T05:46:26.640Z,1024.43
2017-04-06T05:46:52.294Z,1024.44
2017-04-06T05:47:17.864Z,1024.41
2017-04-06T05:47:43.690Z,1024.39
2017-04-06T05:48:09.286Z,1024.43
2017-04-06T05:48:34.878Z,1024.45
2017-04-06T05:49:00.569Z,1024.49
2017-04-06T05:49:59.000Z,1024.49
2017-04-06T05:50:24.564Z,1024.49
2017-04-06T05:50:50.173Z,1024.48
2017-04-06T05:51:15.885Z,1024.52
2017-04-06T05:51:41.434Z,1024.49
2017-04-06T05:52:07.001Z,1024.55
2017-04-06T05:52:32.575Z,1024.51
2017-04-06T05:52:58.132Z,1024.51
2017-04-06T05:53:23.719Z,1024.47
2017-04-06T05:53:49.378Z,1024.57
2017-04-06T05:54:14.963Z,1024.52
2017-04-06T05:54:40.532Z,1024.56
2017-04-06T05:55:06.154Z,1024.44
2017-04-06T05:55:31.721Z,1024.51
2017-04-06T05:55:57.270Z,1024.47
2017-04-06T05:56:22.823Z,1024.56
2017-04-06T05:56:48.372Z,1024.55
2017-04-06T05:57:13.905Z,1024.64
2017-04-06T05:57:39.637Z,1024.59
2017-04-06T05:58:05.206Z,1024.55
2017-04-06T05:58:30.784Z,1024.62
2017-04-06T05:58:56.352Z,1024.6
2017-04-06T05:59:21.965Z,1024.61
2017-04-06T05:59:47.520Z,1024.59
2017-04-06T06:00:13.101Z,1024.57
2017-04-06T06:00:38.684Z,1024.58
2017-04-06T06:01:37.173Z,1024.55
2017-04-06T06:02:02.754Z,1024.62
2017-04-06T06:02:28.409Z,1024.67
2017-04-06T06:02:53.999Z,1024.67
2017-04-06T06:03:19.602Z,1024.62
2017-04-06T06:03:45.201Z,1024.63
2017-04-06T06:04:10.911Z,1024.56
2017-04-06T06:04:36.525Z,1024.7
2017-04-06T06:05:02.065Z,1024.61
2017-04-06T06:06:10.576Z,1024.69
2017-04-06T06:06:36.227Z,1024.72
2017-04-06T06:07:01.891Z,1024.72
2017-04-06T06:07:27.479Z,1024.74
2017-04-06T06:07:53.095Z,1024.87
2017-04-06T06:08:18.763Z,1024.75
2017-04-06T06:08:44.373Z,1024.73
2017-04-06T06:09:09.922Z,1024.85
2017-04-06T06:09:35.508Z,1024.8
2017-04-06T06:10:01.074Z,1024.71
2017-04-06T06:10:26.719Z,1024.71
2017-04-06T06:10:52.399Z,1024.79
2017-04-06T06:11:17.979Z,1024.73
2017-04-06T06:11:43.669Z,1024.77
2017-04-06T06:12:09.351Z,1024.82
2017-04-06T06:12:34.949Z,1024.81
2017-04-06T06:13:00.572Z,1024.84
2017-04-06T06:13:26.154Z,1024.84
2017-04-06T06:13:51.785Z,1024.81
2017-04-06T06:14:17.373Z,1024.84
2017-04-06T06:14:42.950Z,1024.92
2017-04-06T06:15:08.572Z,1024.82
2017-04-06T06:15:34.119Z,1024.96
2017-04-06T06:15:59.748Z,1024.97
2017-04-06T06:16:25.343Z,1024.84
2017-04-06T06:16:50.920Z,1024.92
2017-04-06T06:17:16.601Z,1024.96
2017-04-06T06:17:42.205Z,1024.85
2017-04-06T06:18:07.919Z,1024.88
2017-04-06T06:18:33.535Z,1024.85
2017-04-06T06:18:59.095Z,1024.86
2017-04-06T06:19:24.769Z,1024.83
2017-04-06T06:19:50.325Z,1024.96
2017-04-06T06:20:15.952Z,1024.94
2017-04-06T06:20:41.532Z,1025.01
2017-04-06T06:21:07.070Z,1024.91
2017-04-06T06:21:32.687Z,1024.88
2017-04-06T06:21:58.460Z,1025.07
2017-04-06T06:23:13.492Z,1024.93
2017-04-06T06:23:39.076Z,1024.96
2017-04-06T06:24:04.716Z,1024.89
2017-04-06T06:24:30.259Z,1024.94
2017-04-06T06:24:55.893Z,1024.91
2017-04-06T06:25:21.559Z,1024.9
2017-04-06T06:25:47.076Z,1024.95
2017-04-06T06:26:12.729Z,1024.89
2017-04-06T06:26:38.295Z,1025.16
2017-04-06T06:27:03.898Z,1024.93
2017-04-06T06:27:29.451Z,1024.94
2017-04-06T06:27:55.117Z,1024.86
2017-04-06T06:28:20.757Z,1024.9
2017-04-06T06:28:46.330Z,1024.8
2017-04-06T06:29:11.953Z,1024.82
2017-04-06T06:29:37.678Z,1024.87
2017-04-06T06:30:03.233Z,1025.01
2017-04-06T06:30:28.934Z,1024.8
2017-04-06T06:30:54.479Z,1024.9
2017-04-06T06:31:20.178Z,1024.92
2017-04-06T06:31:45.966Z,1024.85
2017-04-06T06:32:11.615Z,1024.81
2017-04-06T06:32:37.187Z,1024.97
2017-04-06T06:33:02.866Z,1024.97
2017-04-06T06:33:28.416Z,1024.89
2017-04-06T06:34:42.232Z,1024.83
2017-04-06T06:35:07.929Z,1024.83
2017-04-06T06:35:33.562Z,1024.88
2017-04-06T06:36:42.271Z,1024.88
2017-04-06T06:37:07.935Z,1024.85
2017-04-06T06:37:33.502Z,1024.85
2017-04-06T06:37:59.135Z,1024.86
2017-04-06T06:38:24.761Z,1024.98
2017-04-06T06:38:50.346Z,1024.83
2017-04-06T06:39:16.038Z,1024.89
2017-04-06T06:39:41.601Z,1024.87
2017-04-06T06:40:07.284Z,1025.03
2017-04-06T06:40:32.997Z,1024.87
2017-04-06T06:40:58.623Z,1024.91
2017-04-06T06:41:24.411Z,1025.05
2017-04-06T06:41:50.020Z,1024.91
2017-04-06T06:42:15.572Z,1024.86
2017-04-06T06:42:41.239Z,1024.92
2017-04-06T06:43:06.923Z,1024.93
2017-04-06T06:43:32.494Z,1024.91
2017-04-06T06:44:51.839Z,1024.93
2017-04-06T06:45:49.913Z,1025.05
2017-04-06T06:46:15.457Z,1025.07
2017-04-06T06:46:41.059Z,1024.93
2017-04-06T06:47:06.745Z,1024.91
2017-04-06T06:47:32.459Z,1024.92
2017-04-06T06:47:58.224Z,1024.9
2017-04-06T06:48:23.775Z,1024.88
2017-04-06T06:48:49.428Z,1024.96
2017-04-06T06:49:15.015Z,1024.92
2017-04-06T06:49:40.582Z,1024.93
2017-04-06T06:50:06.239Z,1024.97
2017-04-06T06:50:31.802Z,1024.93
2017-04-06T06:50:57.410Z,1024.89
2017-04-06T06:51:23.024Z,1024.98
2017-04-06T06:51:48.631Z,1024.92
2017-04-06T06:52:14.184Z,1024.96
2017-04-06T06:52:39.743Z,1025.05
2017-04-06T06:53:05.347Z,1024.98
2017-04-06T06:53:31.003Z,1024.95
2017-04-06T06:53:56.571Z,1024.94
2017-04-06T06:54:22.247Z,1025
2017-04-06T06:54:47.813Z,1025.05
2017-04-06T06:55:13.647Z,1025.02
2017-04-06T06:55:39.251Z,1024.95
2017-04-06T06:56:04.834Z,1025.04
2017-04-06T06:56:30.500Z,1024.98
2017-04-06T06:56:56.399Z,1025.01
2017-04-06T06:57:21.971Z,1024.9
2017-04-06T06:57:47.609Z,1024.9
2017-04-06T06:58:13.274Z,1024.96
2017-04-06T06:58:38.844Z,1025.02
2017-04-06T06:59:04.512Z,1024.87
2017-04-06T06:59:30.142Z,1024.92
2017-04-06T06:59:55.732Z,1024.9
2017-04-06T07:00:21.300Z,1024.88
2017-04-06T07:00:46.863Z,1024.96
2017-04-06T07:01:12.430Z,1025.07
2017-04-06T07:01:38.144Z,1024.95
2017-04-06T07:02:03.729Z,1024.91
2017-04-06T07:02:29.722Z,1024.9
2017-04-06T07:02:55.117Z,1024.84
2017-04-06T07:03:20.717Z,1024.91
2017-04-06T07:03:46.681Z,1025.07
2017-04-06T07:04:12.237Z,1024.92
2017-04-06T07:04:37.862Z,1024.99
2017-04-06T07:05:03.532Z,1024.95
2017-04-06T07:05:29.088Z,1024.86
2017-04-06T07:05:54.757Z,1024.85
2017-04-06T07:06:20.504Z,1024.8
2017-04-06T07:07:24.021Z,1024.87
2017-04-06T07:08:27.271Z,1024.89
2017-04-06T07:08:52.831Z,1024.86
2017-04-06T07:09:18.470Z,1024.98
2017-04-06T07:09:44.026Z,1024.96
2017-04-06T07:10:09.701Z,1024.94
2017-04-06T07:10:35.353Z,1024.95
2017-04-06T07:11:00.900Z,1024.95
2017-04-06T07:11:26.523Z,1024.95
2017-04-06T07:11:52.131Z,1025.05
2017-04-06T07:12:17.756Z,1025.04
2017-04-06T07:12:43.362Z,1025.03
2017-04-06T07:13:08.913Z,1024.95
2017-04-06T07:13:34.498Z,1024.98
2017-04-06T07:14:00.085Z,1024.95
2017-04-06T07:14:25.759Z,1025.04
2017-04-06T07:14:51.362Z,1025.05
2017-04-06T07:15:16.941Z,1025
2017-04-06T07:17:13.410Z,1025.12
2017-04-06T07:17:38.987Z,1025.1
2017-04-06T07:18:04.605Z,1025.14
2017-04-06T07:18:30.164Z,1025.12
2017-04-06T07:18:55.824Z,1025.1
2017-04-06T07:19:21.509Z,1025.13
2017-04-06T07:19:47.051Z,1025.13
2017-04-06T07:20:12.659Z,1025.17
2017-04-06T07:20:38.219Z,1025.17
2017-04-06T07:21:03.860Z,1025.18
2017-04-06T07:21:29.462Z,1025.17
2017-04-06T07:21:54.999Z,1025.16
2017-04-06T07:22:20.567Z,1025.15
2017-04-06T07:22:46.226Z,1025.17
2017-04-06T07:23:11.838Z,1025.17
2017-04-06T07:23:37.489Z,1025.21
2017-04-06T07:24:03.129Z,1025.19
2017-04-06T07:24:28.700Z,1025.12
2017-04-06T07:24:54.238Z,1025.12
2017-04-06T07:25:19.812Z,1025.21
2017-04-06T07:25:45.376Z,1025.23
2017-04-06T07:26:11.049Z,1025.18
2017-04-06T07:26:36.628Z,1025.17
2017-04-06T07:27:02.184Z,1025.17
2017-04-06T07:27:27.868Z,1025.17
2017-04-06T07:27:53.437Z,1025.18
2017-04-06T07:28:19.034Z,1025.15
2017-04-06T07:28:44.605Z,1025.13
2017-04-06T07:29:10.242Z,1025.12
2017-04-06T07:29:35.865Z,1025.16
2017-04-06T07:30:01.417Z,1025.23
2017-04-06T07:30:27.006Z,1025.21
2017-04-06T07:30:52.650Z,1025.16
2017-04-06T07:31:18.236Z,1025.27
2017-04-06T07:31:43.918Z,1025.27
2017-04-06T07:32:09.493Z,1025.25
2017-04-06T07:32:35.214Z,1025.22
2017-04-06T07:33:00.985Z,1025.24
2017-04-06T07:33:26.541Z,1025.27
2017-04-06T07:33:52.149Z,1025.32
2017-04-06T07:34:17.865Z,1025.35
2017-04-06T07:34:43.434Z,1025.29
2017-04-06T07:35:09.149Z,1025.29
2017-04-06T07:35:34.726Z,1025.28
2017-04-06T07:36:00.322Z,1025.34
2017-04-06T07:37:19.790Z,1025.32
2017-04-06T07:37:45.429Z,1025.23
2017-04-06T07:38:11.009Z,1025.33
2017-04-06T07:38:36.580Z,1025.28
2017-04-06T07:39:02.181Z,1025.32
2017-04-06T07:39:27.774Z,1025.35
2017-04-06T07:39:53.336Z,1025.36
2017-04-06T07:40:18.909Z,1025.34
2017-04-06T07:40:44.453Z,1025.29
2017-04-06T07:41:10.092Z,1025.32
2017-04-06T07:41:35.802Z,1025.34
2017-04-06T07:42:01.370Z,1025.34
2017-04-06T07:42:26.950Z,1025.35
2017-04-06T07:42:52.519Z,1025.32
2017-04-06T07:43:18.098Z,1025.32
2017-04-06T07:43:43.679Z,1025.33
2017-04-06T07:44:09.339Z,1025.32
2017-04-06T07:44:34.971Z,1025.28
2017-04-06T07:45:33.388Z,1025.3
2017-04-06T07:45:59.740Z,1025.31
2017-04-06T07:46:25.403Z,1025.33
2017-04-06T07:46:51.012Z,1025.27
2017-04-06T07:47:16.569Z,1025.33
2017-04-06T07:47:42.138Z,1025.29
2017-04-06T07:48:07.873Z,1025.3
2017-04-06T07:48:33.361Z,1025.27
2017-04-06T07:48:58.929Z,1025.32
2017-04-06T07:49:24.473Z,1025.29
2017-04-06T07:49:50.061Z,1025.35
2017-04-06T07:50:15.619Z,1025.37
2017-04-06T07:50:41.199Z,1025.33
2017-04-06T07:51:06.752Z,1025.37
2017-04-06T07:51:32.331Z,1025.36
2017-04-06T07:51:57.981Z,1025.42
2017-04-06T07:52:23.545Z,1025.41
2017-04-06T07:52:49.147Z,1025.44
2017-04-06T07:53:14.730Z,1025.46
2017-04-06T07:53:40.377Z,1025.44
2017-04-06T07:54:05.992Z,1025.4
2017-04-06T07:54:31.572Z,1025.51
2017-04-06T07:54:57.407Z,1025.37
2017-04-06T07:55:23.158Z,1025.42
2017-04-06T07:55:48.724Z,1025.48
2017-04-06T07:56:14.305Z,1025.41
2017-04-06T07:56:39.900Z,1025.43
2017-04-06T07:57:05.436Z,1025.46
2017-04-06T07:57:31.098Z,1025.43
2017-04-06T07:57:56.660Z,1025.41
2017-04-06T07:58:22.401Z,1025.47
2017-04-06T07:58:48.031Z,1025.47
2017-04-06T07:59:51.621Z,1025.6
2017-04-06T08:00:17.292Z,1025.49
2017-04-06T08:00:42.954Z,1025.51
2017-04-06T08:01:08.550Z,1025.52
2017-04-06T08:01:34.113Z,1025.52
2017-04-06T08:01:59.712Z,1025.52
2017-04-06T08:02:25.352Z,1025.54
2017-04-06T08:02:50.900Z,1025.53
2017-04-06T08:03:16.532Z,1025.55
2017-04-06T08:03:42.123Z,1025.66
2017-04-06T08:04:07.687Z,1025.59
2017-04-06T08:04:33.255Z,1025.61
2017-04-06T08:04:58.811Z,1025.68
2017-04-06T08:05:24.447Z,1025.57
2017-04-06T08:05:50.143Z,1025.62
2017-04-06T08:06:15.681Z,1025.61
2017-04-06T08:06:41.366Z,1025.67
2017-04-06T08:07:06.932Z,1025.63
2017-04-06T08:07:33.271Z,1025.64
2017-04-06T08:07:58.820Z,1025.63
2017-04-06T08:08:24.415Z,1025.67
2017-04-06T08:08:49.978Z,1025.68
2017-04-06T08:09:15.686Z,1025.66
2017-04-06T08:09:41.362Z,1025.67
2017-04-06T08:10:06.921Z,1025.6
2017-04-06T08:10:32.528Z,1025.64
2017-04-06T08:10:58.085Z,1025.6
2017-04-06T08:11:23.658Z,1025.67
2017-04-06T08:11:49.224Z,1025.68
2017-04-06T08:12:14.850Z,1025.71
2017-04-06T08:12:40.467Z,1025.7
2017-04-06T08:13:06.016Z,1025.68
2017-04-06T08:13:31.681Z,1025.68
2017-04-06T08:13:57.302Z,1025.76
2017-04-06T08:14:22.846Z,1025.78
2017-04-06T08:14:48.449Z,1025.73
2017-04-06T08:15:13.992Z,1025.69
2017-04-06T08:15:39.629Z,1025.66
2017-04-06T08:16:05.189Z,1025.69
2017-04-06T08:17:19.079Z,1025.68
2017-04-06T08:17:44.732Z,1025.67
2017-04-06T08:18:10.397Z,1025.69
2017-04-06T08:18:35.989Z,1025.64
2017-04-06T08:19:13.419Z,1025.74
2017-04-06T08:19:39.006Z,1025.67
2017-04-06T08:20:04.657Z,1025.68
2017-04-06T08:20:30.215Z,1025.65
2017-04-06T08:20:55.869Z,1025.66
2017-04-06T08:21:21.452Z,1025.66
2017-04-06T08:21:47.004Z,1025.72
2017-04-06T08:22:12.603Z,1025.73
2017-04-06T08:22:38.311Z,1025.73
2017-04-06T08:23:03.888Z,1025.78
2017-04-06T08:23:29.502Z,1025.79
2017-04-06T08:23:55.131Z,1025.77
2017-04-06T08:24:20.710Z,1025.72
2017-04-06T08:24:46.279Z,1025.76
2017-04-06T08:25:11.934Z,1025.74
2017-04-06T08:25:37.501Z,1025.73
2017-04-06T08:26:03.068Z,1025.83
2017-04-06T08:26:28.784Z,1025.86
2017-04-06T08:26:54.349Z,1025.8
2017-04-06T08:27:19.997Z,1025.84
2017-04-06T08:27:45.695Z,1025.82
2017-04-06T08:28:11.277Z,1025.86
2017-04-06T08:28:36.901Z,1025.9
2017-04-06T08:29:02.526Z,1025.88
2017-04-06T08:29:35.181Z,1025.9
2017-04-06T08:30:00.760Z,1025.88
2017-04-06T08:30:26.321Z,1025.9
2017-04-06T08:30:51.944Z,1025.94
2017-04-06T08:31:18.193Z,1025.94
2017-04-06T08:31:43.859Z,1025.95
2017-04-06T08:32:09.437Z,1025.92
2017-04-06T08:32:35.009Z,1025.91
2017-04-06T08:33:00.571Z,1025.96